Time;durP1;ratioP1;P1;durP2;ratioP2;P2;SDS_P1;SDS_P2;PMS_P1;PMS_P2;Temp;Humidity;BMP_temperature;BMP_pressure;BME280_temperature;BME280_humidity;BME280_pressure;Samples;Min_cycle;Max_cycle;Signal;HPM_P1;HPM_P2
2022/05/20 00:00:48;;;;;;;2.47;1.97;;;;;;;11.91;72.97;98163.78;6258596;28;20603;-69
2022/05/20 00:03:51;;;;;;;2.90;2.33;;;;;;;11.87;73.05;98174.75;6235515;28;20634;-70
2022/05/20 00:06:53;;;;;;;2.60;2.23;;;;;;;11.87;73.29;98174.75;6255459;28;20602;-69
2022/05/20 00:09:55;;;;;;;2.47;2.00;;;;;;;11.85;73.15;98172.22;6254265;28;20233;-69
2022/05/20 00:12:59;;;;;;;2.57;2.37;;;;;;;11.75;73.56;98168.59;6254267;28;20238;-69
2022/05/20 00:16:02;;;;;;;2.30;1.90;;;;;;;11.67;73.96;98169.16;6236479;28;20318;-70
2022/05/20 00:19:07;;;;;;;2.83;1.70;;;;;;;11.67;73.89;98170.97;6255340;28;20230;-69
2022/05/20 00:22:15;;;;;;;3.00;2.10;;;;;;;11.65;74.00;98170.25;6255225;28;20635;-70
2022/05/20 00:28:43;;;;;;;2.27;2.07;;;;;;;11.59;74.12;98168.03;6253811;28;20290;-69
2022/05/20 00:31:45;;;;;;;2.80;2.27;;;;;;;11.59;74.11;98170.69;6253120;28;20258;-69
2022/05/20 00:34:47;;;;;;;3.13;2.20;;;;;;;11.56;74.53;98181.53;6253526;28;20229;-69
2022/05/20 00:37:50;;;;;;;3.40;2.30;;;;;;;11.50;75.02;98180.16;6235378;28;20572;-69
2022/05/20 00:40:54;;;;;;;2.53;2.33;;;;;;;11.51;75.66;98183.66;6253652;28;20596;-69
2022/05/20 00:43:58;;;;;;;2.27;2.07;;;;;;;11.56;75.34;98184.16;6253666;28;20238;-69
2022/05/20 00:47:00;;;;;;;4.27;2.20;;;;;;;11.56;75.22;98186.81;6253084;28;20239;-69
2022/05/20 00:50:09;;;;;;;4.60;3.53;;;;;;;11.54;75.67;98188.72;6253482;28;20247;-69
2022/05/20 00:53:14;;;;;;;3.00;2.70;;;;;;;11.53;75.44;98192.31;6253104;28;20234;-69
2022/05/20 00:56:22;;;;;;;4.30;2.30;;;;;;;11.48;75.81;98195.28;6253486;28;20230;-69
2022/05/20 00:59:27;;;;;;;3.00;2.60;;;;;;;11.49;76.10;98204.91;6252287;28;20226;-69
2022/05/20 01:02:32;;;;;;;2.60;2.40;;;;;;;11.50;76.14;98214.53;6250249;28;20605;-69
2022/05/20 01:05:42;;;;;;;2.83;2.40;;;;;;;11.51;76.32;98218.84;6189190;28;20433;-69
2022/05/20 01:08:44;;;;;;;4.00;2.40;;;;;;;11.49;76.17;98215.47;6213209;28;20257;-69
2022/05/20 01:11:46;;;;;;;2.77;2.20;;;;;;;11.51;76.11;98213.56;6228578;28;20297;-69
2022/05/20 01:14:49;;;;;;;2.50;1.83;;;;;;;11.49;76.66;98215.47;6228305;28;20328;-70
2022/05/20 01:17:54;;;;;;;2.47;2.20;;;;;;;11.52;76.23;98228.47;6229130;28;20249;-70
2022/05/20 01:20:57;;;;;;;4.83;2.40;;;;;;;11.56;76.52;98234.38;6202984;28;20293;-69
2022/05/20 01:24:00;;;;;;;2.50;1.93;;;;;;;11.56;76.50;98244.97;6224547;28;20239;-69
2022/05/20 01:27:03;;;;;;;3.87;2.63;;;;;;;11.51;77.28;98260.31;6219443;28;20262;-69
2022/05/20 01:30:06;;;;;;;3.47;2.50;;;;;;;11.45;77.50;98270.41;6228853;28;20242;-69
2022/05/20 01:33:08;;;;;;;2.60;2.40;;;;;;;11.46;77.79;98268.59;6229061;28;20691;-69
2022/05/20 01:36:14;;;;;;;3.53;2.67;;;;;;;11.40;78.97;98298.94;6211037;28;20217;-69
2022/05/20 01:39:17;;;;;;;3.73;3.03;;;;;;;11.46;79.19;98295.03;6229233;28;20214;-69
2022/05/20 01:42:30;;;;;;;4.60;3.03;;;;;;;11.70;78.98;98287.88;6210722;28;20214;-69
2022/05/20 01:45:41;;;;;;;3.13;2.83;;;;;;;11.92;78.88;98278.38;6227144;28;20229;-70
2022/05/20 01:48:55;;;;;;;2.77;2.57;;;;;;;12.15;78.55;98277.47;6191257;28;20712;-69
2022/05/20 01:52:22;;;;;;;4.83;2.97;;;;;;;12.32;78.12;98274.34;6227573;28;20584;-70
2022/05/20 01:55:54;;;;;;;4.07;3.20;;;;;;;12.41;78.21;98273.63;6227656;28;20284;-69
2022/05/20 01:59:12;;;;;;;3.77;3.33;;;;;;;12.52;78.09;98278.94;6216634;28;20239;-70
2022/05/20 02:02:30;;;;;;;2.70;2.50;;;;;;;12.62;78.13;98279.03;6228101;28;20729;-69
2022/05/20 02:05:34;;;;;;;7.03;2.80;;;;;;;12.78;77.41;98273.34;6210403;28;20254;-70
2022/05/20 02:08:45;;;;;;;3.60;2.50;;;;;;;12.92;77.15;98268.66;6227712;28;20602;-70
2022/05/20 02:11:53;;;;;;;3.03;2.50;;;;;;;13.12;76.67;98277.66;6210213;28;20239;-69
2022/05/20 02:15:08;;;;;;;3.57;2.83;;;;;;;13.54;75.11;98283.09;6211926;28;20242;-70
2022/05/20 02:18:17;;;;;;;5.83;2.67;;;;;;;14.11;72.05;98271.19;6231416;28;20235;-70
2022/05/20 02:21:25;;;;;;;3.73;2.27;;;;;;;15.04;67.06;98272.75;6231984;28;20208;-69
2022/05/20 02:24:31;;;;;;;3.80;2.50;;;;;;;15.70;65.76;98285.44;6231964;28;20239;-70
2022/05/20 02:27:40;;;;;;;4.60;2.03;;;;;;;16.04;64.10;98286.69;6231899;28;20707;-71
2022/05/20 02:30:43;;;;;;;4.80;2.07;;;;;;;16.43;61.94;98274.09;6230822;28;20252;-70
2022/05/20 02:33:45;;;;;;;2.57;2.37;;;;;;;16.61;61.62;98274.19;6232064;28;20231;-71
2022/05/20 02:36:47;;;;;;;3.67;2.13;;;;;;;16.87;60.85;98277.88;6215192;28;20236;-69
2022/05/20 02:39:50;;;;;;;2.57;2.17;;;;;;;17.00;60.95;98276.69;6214066;28;20242;-69
2022/05/20 02:42:52;;;;;;;2.73;2.10;;;;;;;17.03;61.47;98266.56;6232839;28;20235;-70
2022/05/20 02:45:55;;;;;;;3.50;2.20;;;;;;;16.98;61.94;98264.34;6214445;28;20240;-70
2022/05/20 02:48:57;;;;;;;2.70;2.07;;;;;;;16.72;63.19;98265.19;6232697;28;20603;-70
2022/05/20 02:51:59;;;;;;;2.53;1.83;;;;;;;16.33;64.51;98267.97;6231408;28;20231;-70
2022/05/20 02:55:04;;;;;;;3.73;1.93;;;;;;;16.04;65.84;98268.03;6213369;28;20346;-69
2022/05/20 02:58:06;;;;;;;2.70;2.30;;;;;;;15.83;67.02;98264.72;6231377;28;20720;-70
2022/05/20 03:04:31;;;;;;;2.50;2.30;;;;;;;15.52;68.36;98259.50;6249346;28;20247;-69
2022/05/20 03:07:34;;;;;;;2.50;2.30;;;;;;;15.49;68.76;98249.13;6255806;28;20235;-69
2022/05/20 03:10:37;;;;;;;6.90;2.20;;;;;;;15.50;69.30;98247.31;6256359;28;20441;-70
2022/05/20 03:13:39;;;;;;;5.57;2.57;;;;;;;15.52;68.76;98253.34;6254102;28;20564;-70
2022/05/20 03:16:41;;;;;;;5.60;2.30;;;;;;;15.45;69.08;98253.06;6254393;28;20597;-69
2022/05/20 03:19:44;;;;;;;2.80;2.13;;;;;;;15.34;69.45;98241.72;6238753;28;20699;-70
2022/05/20 03:22:46;;;;;;;5.97;2.30;;;;;;;15.23;69.99;98229.41;6255427;28;20234;-70
2022/05/20 03:25:48;;;;;;;4.80;2.37;;;;;;;15.13;70.67;98217.91;6237374;28;20235;-69
2022/05/20 03:28:50;;;;;;;3.83;2.33;;;;;;;15.08;70.85;98222.78;6253763;28;20233;-70
2022/05/20 03:31:52;;;;;;;2.40;2.20;;;;;;;15.05;70.97;98212.44;6255247;28;20227;-70
2022/05/20 03:34:57;;;;;;;3.57;2.10;;;;;;;15.08;71.10;98206.84;6254416;28;20234;-70
2022/05/20 03:37:59;;;;;;;3.87;2.13;;;;;;;15.04;71.88;98208.94;6254907;28;20243;-70
2022/05/20 03:41:02;;;;;;;2.63;2.33;;;;;;;14.96;72.51;98205.31;6256198;28;20384;-70
2022/05/20 03:44:06;;;;;;;2.43;2.23;;;;;;;14.91;72.82;98216.34;6254024;28;20590;-70
2022/05/20 03:47:08;;;;;;;3.57;2.33;;;;;;;14.96;73.16;98222.09;6254319;28;20238;-70
2022/05/20 03:50:11;;;;;;;4.13;2.00;;;;;;;15.03;72.84;98227.69;6237845;28;20261;-69
2022/05/20 03:53:13;;;;;;;2.03;1.83;;;;;;;15.11;72.66;98246.44;6236777;28;20281;-69
2022/05/20 03:56:16;;;;;;;3.20;2.30;;;;;;;15.20;72.21;98240.28;6220477;28;20679;-70
2022/05/20 03:59:18;;;;;;;2.23;1.93;;;;;;;15.26;72.16;98239.75;6253828;28;20376;-70
2022/05/20 04:02:20;;;;;;;2.13;1.80;;;;;;;15.26;73.12;98241.59;6234656;28;20225;-69
2022/05/20 04:05:23;;;;;;;4.47;2.00;;;;;;;15.20;73.38;98236.78;6253272;28;20285;-69
2022/05/20 04:08:26;;;;;;;2.97;2.00;;;;;;;15.21;73.48;98233.16;6254770;28;20256;-70
2022/05/20 04:11:28;;;;;;;3.67;1.97;;;;;;;15.27;73.55;98240.59;6253836;28;20258;-69
2022/05/20 04:14:31;;;;;;;3.17;1.90;;;;;;;15.35;73.68;98240.75;6235977;28;20322;-70
2022/05/20 04:17:36;;;;;;;3.67;1.97;;;;;;;15.40;73.76;98249.13;6253438;28;20266;-70
2022/05/20 04:20:38;;;;;;;2.70;2.33;;;;;;;15.41;74.21;98251.66;6253393;28;20281;-69
2022/05/20 04:23:42;;;;;;;3.30;2.33;;;;;;;15.43;74.35;98246.19;6253346;28;20282;-70
2022/05/20 04:26:44;;;;;;;2.90;2.33;;;;;;;15.45;74.57;98249.56;6235479;28;20442;-70
2022/05/20 04:29:46;;;;;;;2.10;2.00;;;;;;;15.50;74.28;98257.94;6253761;28;20348;-70
2022/05/20 04:32:49;;;;;;;2.70;1.77;;;;;;;15.56;73.89;98262.75;6253200;28;20243;-70
2022/05/20 04:35:52;;;;;;;2.77;1.83;;;;;;;15.58;74.33;98266.09;6250676;28;20237;-70
2022/05/20 04:38:54;;;;;;;2.53;1.70;;;;;;;15.60;74.32;98268.63;6252794;28;20239;-70
2022/05/20 04:48:37;;;;;;;1.90;1.73;;;;;;;15.66;74.72;98279.56;6252623;28;20223;-70
2022/05/20 04:51:41;;;;;;;3.33;2.10;;;;;;;15.72;74.83;98272.84;6253373;28;20234;-70
2022/05/20 04:54:52;;;;;;;2.90;2.00;;;;;;;15.80;74.72;98275.63;6252749;28;20252;-70
2022/05/20 04:57:54;;;;;;;2.30;1.67;;;;;;;15.88;74.81;98289.06;6252724;28;20235;-70
2022/05/20 05:00:58;;;;;;;2.37;1.70;;;;;;;15.99;74.76;98285.41;6253419;28;20226;-70
2022/05/20 05:04:00;;;;;;;2.33;2.13;;;;;;;16.13;74.29;98296.47;6252221;28;20249;-70
2022/05/20 05:07:03;;;;;;;3.00;1.90;;;;;;;16.24;73.91;98304.31;6244602;28;20332;-70
2022/05/20 05:10:06;;;;;;;2.27;1.97;;;;;;;16.35;73.54;98294.47;6252994;28;20235;-70
2022/05/20 05:13:09;;;;;;;3.83;1.90;;;;;;;16.40;73.72;98300.19;6234377;28;20388;-71
2022/05/20 05:16:11;;;;;;;2.50;1.87;;;;;;;16.47;73.55;98296.00;6234862;28;20372;-70
2022/05/20 05:19:13;;;;;;;2.23;2.00;;;;;;;16.54;73.53;98287.25;6252594;28;20242;-70
2022/05/20 05:22:15;;;;;;;2.20;2.00;;;;;;;16.60;73.72;98291.16;6252011;28;20748;-70
2022/05/20 05:25:20;;;;;;;2.10;2.00;;;;;;;16.75;73.41;98299.56;6252348;28;20325;-70
2022/05/20 05:28:22;;;;;;;2.07;1.97;;;;;;;16.88;73.07;98297.38;6252246;28;20238;-70
2022/05/20 05:31:26;;;;;;;2.77;2.20;;;;;;;17.08;72.63;98295.44;6252990;28;20245;-70
2022/05/20 05:34:28;;;;;;;2.20;2.00;;;;;;;17.24;72.56;98301.00;6251275;28;20300;-70
2022/05/20 05:37:34;;;;;;;2.30;2.00;;;;;;;17.45;71.88;98304.22;6252534;28;20230;-70
2022/05/20 05:40:37;;;;;;;2.93;1.90;;;;;;;17.63;71.46;98307.78;6252291;28;20227;-70
2022/05/20 05:43:39;;;;;;;2.60;2.00;;;;;;;17.72;71.11;98311.34;6234945;28;20313;-70
2022/05/20 05:46:41;;;;;;;1.83;1.73;;;;;;;17.75;70.96;98318.22;6252480;28;20239;-70
2022/05/20 05:49:44;;;;;;;2.73;2.00;;;;;;;17.74;71.05;98308.53;6228082;28;20231;-70
2022/05/20 05:52:46;;;;;;;1.87;1.73;;;;;;;17.86;70.98;98310.84;6250168;28;20238;-71
2022/05/20 05:55:55;;;;;;;3.17;2.10;;;;;;;17.97;71.41;98304.38;6255536;28;20229;-70
2022/05/20 05:58:57;;;;;;;2.50;2.30;;;;;;;18.05;71.30;98308.00;6256717;28;20231;-70
2022/05/20 06:05:45;;;;;;;3.70;2.40;;;;;;;18.17;71.68;98307.75;6227266;28;20243;-70
2022/05/20 06:08:47;;;;;;;3.10;2.17;;;;;;;18.34;71.16;98315.72;6230338;28;20571;-70
2022/05/20 06:11:50;;;;;;;2.73;1.93;;;;;;;18.57;71.31;98304.47;6232205;28;20322;-70
2022/05/20 06:14:52;;;;;;;2.97;2.37;;;;;;;18.88;70.29;98303.00;6230866;28;20246;-70
2022/05/20 06:17:56;;;;;;;4.13;2.33;;;;;;;19.27;69.03;98297.97;6234203;28;20255;-70
2022/05/20 06:20:59;;;;;;;3.40;2.50;;;;;;;19.67;68.26;98302.63;6230888;28;20228;-70
2022/05/20 06:24:01;;;;;;;4.67;2.90;;;;;;;19.89;68.31;98306.50;6233565;28;20246;-71
2022/05/20 06:27:04;;;;;;;3.27;2.50;;;;;;;20.06;67.78;98304.69;6229970;28;20216;-71
2022/05/20 06:30:09;;;;;;;3.23;2.93;;;;;;;20.38;66.92;98310.03;6214471;28;20244;-70
2022/05/20 06:33:12;;;;;;;3.60;2.60;;;;;;;20.73;65.32;98311.50;6231869;28;20703;-70
2022/05/20 06:39:51;;;;;;;4.07;3.10;;;;;;;21.28;63.51;98324.91;6231559;28;20603;-70
2022/05/20 06:42:53;;;;;;;3.17;2.63;;;;;;;21.27;63.55;98325.06;6232456;28;20385;-70
2022/05/20 06:45:58;;;;;;;2.93;2.70;;;;;;;21.44;61.95;98321.31;6197571;28;20726;-71
2022/05/20 06:49:20;;;;;;;3.43;3.00;;;;;;;21.75;59.84;98321.28;6232767;28;20409;-70
2022/05/20 06:52:22;;;;;;;3.27;2.50;;;;;;;22.02;58.56;98315.41;6230171;28;20231;-71
2022/05/20 06:55:39;;;;;;;3.77;2.50;;;;;;;22.41;57.10;98314.41;6230621;28;20612;-71
2022/05/20 06:58:42;;;;;;;4.03;2.80;;;;;;;22.55;56.32;98315.47;6230769;28;20239;-71
2022/05/20 07:01:44;;;;;;;3.23;2.47;;;;;;;22.78;55.93;98310.84;6196520;28;20382;-71
2022/05/20 07:05:08;;;;;;;2.80;2.57;;;;;;;22.96;54.61;98314.00;6248905;28;20246;-71
2022/05/20 07:08:11;;;;;;;3.87;2.40;;;;;;;23.19;53.77;98316.59;6255124;28;20233;-71
2022/05/20 07:11:20;;;;;;;2.53;2.17;;;;;;;23.55;52.58;98316.69;6237258;28;20246;-70
2022/05/20 07:14:22;;;;;;;2.97;2.67;;;;;;;23.78;51.55;98320.03;6256110;28;20715;-70
2022/05/20 07:17:25;;;;;;;2.80;2.47;;;;;;;23.89;50.50;98318.69;6254661;28;20227;-71
2022/05/20 07:20:27;;;;;;;4.10;2.40;;;;;;;24.25;49.98;98315.97;6253647;28;20656;-71
2022/05/20 07:23:31;;;;;;;3.40;2.50;;;;;;;24.63;49.02;98329.97;6255736;28;20292;-71
2022/05/20 07:26:34;;;;;;;3.03;2.70;;;;;;;24.98;48.19;98325.44;6254567;28;20227;-71
2022/05/20 07:29:36;;;;;;;2.60;2.20;;;;;;;25.44;46.66;98324.88;6229254;28;20242;-70
2022/05/20 07:32:38;;;;;;;2.67;2.40;;;;;;;25.60;46.14;98325.38;6250279;28;20313;-71
2022/05/20 07:35:40;;;;;;;4.17;2.27;;;;;;;25.91;45.19;98324.00;6254048;28;20672;-70
2022/05/20 07:38:43;;;;;;;3.05;2.35;;;;;;;26.25;45.10;98306.78;6253150;28;20231;-70
2022/05/20 07:41:47;;;;;;;2.13;2.00;;;;;;;26.38;44.43;98315.75;6254444;28;20230;-70
2022/05/20 07:44:49;;;;;;;2.28;2.05;;;;;;;26.44;44.07;98304.09;6254568;28;20219;-70
2022/05/20 07:47:52;;;;;;;4.13;2.10;;;;;;;26.69;43.88;98311.56;6236366;28;20253;-71
2022/05/20 07:51:07;;;;;;;2.10;1.90;;;;;;;27.12;43.18;98301.09;6237018;28;20235;-70
2022/05/20 07:54:15;;;;;;;4.43;2.22;;;;;;;27.45;42.82;98299.06;6253742;28;20597;-70
2022/05/20 07:57:18;;;;;;;3.95;1.90;;;;;;;27.70;41.54;98296.50;6254012;28;20215;-72
2022/05/20 08:00:22;;;;;;;2.70;2.42;;;;;;;27.98;41.48;98295.28;6254432;28;20311;-71
2022/05/20 08:06:46;;;;;;;2.08;1.80;;;;;;;28.86;40.71;98296.88;6254027;28;20260;-72
2022/05/20 08:09:48;;;;;;;4.05;1.70;;;;;;;29.31;40.05;98300.13;6253346;28;20231;-71
2022/05/20 08:12:50;;;;;;;2.05;1.90;;;;;;;29.53;39.72;98294.25;6253617;28;20254;-71
2022/05/20 08:15:52;;;;;;;2.10;1.90;;;;;;;29.31;39.81;98302.88;6253183;28;20242;-71
2022/05/20 08:18:54;;;;;;;2.33;1.90;;;;;;;29.20;38.65;98305.50;6252081;28;20589;-70
2022/05/20 08:21:57;;;;;;;2.65;2.00;;;;;;;29.32;37.75;98303.69;6236383;28;20699;-71
2022/05/20 08:24:59;;;;;;;2.70;1.95;;;;;;;29.57;38.09;98296.28;6254622;28;20630;-70
2022/05/20 08:28:01;;;;;;;2.03;1.83;;;;;;;29.95;36.40;98295.16;6253126;28;20230;-70
2022/05/20 08:31:03;;;;;;;2.40;2.17;;;;;;;29.86;35.94;98294.63;6253460;28;20254;-70
2022/05/20 08:34:06;;;;;;;3.28;2.00;;;;;;;30.18;36.51;98281.59;6237016;28;20648;-70
2022/05/20 08:37:08;;;;;;;2.25;2.05;;;;;;;30.68;36.43;98282.03;6253353;28;20237;-70
2022/05/20 08:40:20;;;;;;;1.60;1.50;;;;;;;30.95;35.45;98285.09;6252784;28;20341;-71
2022/05/20 08:43:29;;;;;;;2.03;1.92;;;;;;;31.35;35.65;98268.78;6252899;28;20300;-72
2022/05/20 08:46:32;;;;;;;3.05;1.60;;;;;;;31.70;36.06;98276.06;6252787;28;20703;-71
2022/05/20 08:49:36;;;;;;;2.10;1.92;;;;;;;31.92;35.62;98277.03;6253097;28;20223;-70
2022/05/20 08:52:40;;;;;;;1.95;1.80;;;;;;;32.10;34.17;98267.78;6258506;28;20230;-72
2022/05/20 08:55:43;;;;;;;2.08;1.60;;;;;;;32.09;35.02;98272.41;6252739;28;20242;-71
2022/05/20 08:59:08;;;;;;;1.80;1.70;;;;;;;32.12;34.41;98265.63;6236528;28;20318;-72
2022/05/20 09:02:23;;;;;;;1.73;1.63;;;;;;;32.42;34.17;98263.44;6253318;28;20231;-71
2022/05/20 09:05:31;;;;;;;2.88;1.92;;;;;;;32.55;33.78;98263.09;6251490;28;20251;-71
2022/05/20 09:08:34;;;;;;;1.70;1.60;;;;;;;32.65;33.23;98267.88;6253236;28;20227;-71
2022/05/20 09:11:38;;;;;;;2.40;1.70;;;;;;;32.70;32.65;98267.13;6236319;28;20234;-71
2022/05/20 09:18:11;;;;;;;2.10;1.90;;;;;;;32.71;30.77;98258.72;6251513;28;20229;-71
2022/05/20 09:21:25;;;;;;;1.85;1.67;;;;;;;32.97;31.13;98255.25;6253016;28;21070;-70
2022/05/20 09:24:37;;;;;;;2.03;1.80;;;;;;;33.45;30.55;98261.91;6252395;28;20223;-70
2022/05/20 09:27:39;;;;;;;3.15;1.70;;;;;;;33.53;30.56;98266.94;6257516;28;20699;-71
2022/05/20 09:30:50;;;;;;;2.10;1.90;;;;;;;33.48;30.29;98258.66;6240475;28;20238;-71
2022/05/20 09:34:30;;;;;;;2.10;1.70;;;;;;;33.89;30.48;98251.75;6239900;28;20242;-70
2022/05/20 09:37:34;;;;;;;2.78;1.90;;;;;;;34.15;30.44;98249.22;6257583;28;20231;-70
2022/05/20 09:40:41;;;;;;;5.07;2.20;;;;;;;34.16;29.99;98248.13;6240940;28;20253;-70
2022/05/20 09:43:57;;;;;;;1.55;1.45;;;;;;;33.92;30.54;98247.66;6258002;28;20273;-70
2022/05/20 09:47:13;;;;;;;2.08;1.58;;;;;;;34.27;29.52;98241.69;6256861;28;20317;-70
2022/05/20 09:50:28;;;;;;;1.92;1.70;;;;;;;34.30;29.72;98241.16;6251439;28;20374;-70
2022/05/20 09:53:36;;;;;;;2.33;1.88;;;;;;;34.57;30.60;98235.59;6255399;28;20228;-70
2022/05/20 09:56:43;;;;;;;2.92;1.52;;;;;;;34.77;30.58;98228.34;6257015;28;20219;-70
2022/05/20 09:59:56;;;;;;;3.00;1.95;;;;;;;34.73;28.84;98229.97;6256947;28;20227;-71
2022/05/20 10:03:02;;;;;;;2.35;2.17;;;;;;;34.53;29.16;98221.59;6239284;28;20239;-70
2022/05/20 10:06:15;;;;;;;2.75;1.60;;;;;;;34.84;30.40;98222.63;6231439;28;20602;-69
2022/05/20 10:09:36;;;;;;;1.88;1.63;;;;;;;35.56;28.29;98215.50;6256708;28;20211;-71
2022/05/20 10:12:41;;;;;;;1.95;1.58;;;;;;;35.93;28.35;98209.84;6256910;28;20219;-71
2022/05/20 10:15:49;;;;;;;2.38;1.95;;;;;;;35.15;27.11;98196.97;6238790;28;20234;-70
2022/05/20 10:19:15;;;;;;;2.25;2.05;;;;;;;34.18;26.99;98202.13;6239453;28;20346;-70
2022/05/20 10:22:41;;;;;;;2.60;2.20;;;;;;;33.90;29.05;98201.34;6238808;28;20245;-71
2022/05/20 10:26:18;;;;;;;3.67;2.00;;;;;;;34.07;28.91;98196.56;6257042;28;20246;-70
2022/05/20 10:33:14;;;;;;;1.90;1.80;;;;;;;35.54;28.42;98196.56;6155867;28;20248;-71
2022/05/20 10:36:23;;;;;;;2.03;1.88;;;;;;;35.79;27.21;98188.41;6127174;28;20214;-71
2022/05/20 10:40:03;;;;;;;1.95;1.77;;;;;;;35.77;26.37;98196.09;6156037;28;20244;-70
2022/05/20 10:43:30;;;;;;;2.35;1.75;;;;;;;36.18;26.89;98194.19;6156358;28;20234;-70
2022/05/20 10:50:21;;;;;;;1.75;1.65;;;;;;;36.77;24.64;98188.06;6156293;28;20233;-70
2022/05/20 10:53:42;;;;;;;2.38;1.55;;;;;;;36.90;24.55;98179.22;6149771;28;20238;-70
2022/05/20 10:56:56;;;;;;;2.20;2.00;;;;;;;36.28;25.74;98176.88;6156708;28;20238;-72
2022/05/20 11:00:20;;;;;;;1.90;1.70;;;;;;;36.16;26.06;98184.56;6156093;28;20238;-71
2022/05/20 11:03:28;;;;;;;1.75;1.65;;;;;;;36.09;26.11;98173.84;6209096;28;20698;-71
2022/05/20 11:07:17;;;;;;;1.45;1.35;;;;;;;35.93;27.66;98166.72;6254340;28;20238;-71
2022/05/20 11:10:44;;;;;;;1.70;1.60;;;;;;;36.64;27.44;98169.38;6140396;28;20234;-71
2022/05/20 11:14:11;;;;;;;1.55;1.45;;;;;;;36.66;27.93;98164.41;6155338;28;20613;-71
2022/05/20 11:17:30;;;;;;;2.00;1.58;;;;;;;37.33;26.69;98155.63;6149146;28;20248;-70
2022/05/20 11:20:40;;;;;;;1.60;1.42;;;;;;;37.66;25.65;98151.31;6155438;28;20241;-70
2022/05/20 11:24:07;;;;;;;3.45;1.80;;;;;;;37.40;25.37;98151.75;6156005;28;20233;-70
2022/05/20 11:27:09;;;;;;;2.70;1.63;;;;;;;37.61;25.20;98150.56;6155216;28;20222;-71
2022/05/20 11:30:13;;;;;;;2.13;1.58;;;;;;;38.03;24.81;98141.66;6156470;28;20230;-71
2022/05/20 11:33:34;;;;;;;3.33;1.55;;;;;;;37.50;23.69;98132.41;6138794;28;20210;-72
2022/05/20 11:36:36;;;;;;;2.97;1.83;;;;;;;37.23;24.50;98139.19;6153905;28;20237;-71
2022/05/20 11:40:06;;;;;;;2.80;1.60;;;;;;;37.18;22.77;98127.38;6164824;28;21078;-70
2022/05/20 11:44:00;;;;;;;2.15;1.70;;;;;;;37.43;21.32;98121.72;6252712;28;20231;-71
2022/05/20 11:47:15;;;;;;;3.28;1.73;;;;;;;37.41;21.83;98120.34;6186225;28;20233;-71
2022/05/20 11:50:39;;;;;;;1.67;1.58;;;;;;;38.06;22.02;98116.25;6202403;28;20790;-70
2022/05/20 11:53:50;;;;;;;1.70;1.60;;;;;;;38.62;21.64;98108.28;6203153;28;20269;-69
2022/05/20 11:57:07;;;;;;;3.17;1.90;;;;;;;39.07;21.34;98109.63;6202254;28;20244;-70
2022/05/20 12:00:16;;;;;;;1.70;1.60;;;;;;;38.80;21.66;98105.84;6178557;28;20241;-70
2022/05/20 12:03:25;;;;;;;1.60;1.50;;;;;;;38.57;21.31;98099.22;6186416;28;20263;-71
2022/05/20 12:06:30;;;;;;;1.67;1.58;;;;;;;38.84;21.10;98093.09;6206847;28;20242;-71
2022/05/20 12:09:40;;;;;;;1.67;1.58;;;;;;;38.99;19.98;98096.50;6202521;28;20239;-70
2022/05/20 12:13:08;;;;;;;2.08;1.70;;;;;;;39.32;19.71;98093.84;6201794;28;20276;-71
2022/05/20 12:16:14;;;;;;;2.38;1.70;;;;;;;39.09;20.94;98087.25;6151269;28;20268;-71
2022/05/20 12:26:25;;;;;;;2.95;1.60;;;;;;;37.43;25.01;98082.34;6229515;28;20228;-71
2022/05/20 12:29:39;;;;;;;1.88;1.48;;;;;;;37.69;25.57;98070.03;6252574;28;20739;-71
2022/05/20 12:32:44;;;;;;;2.95;1.50;;;;;;;38.16;24.34;98068.50;6256100;28;20319;-71
2022/05/20 12:36:35;;;;;;;2.03;1.67;;;;;;;38.47;21.29;98056.00;6253150;28;20234;-70
2022/05/20 12:39:52;;;;;;;2.92;2.03;;;;;;;38.85;23.33;98065.19;6250719;28;20238;-71
2022/05/20 12:43:03;;;;;;;3.35;1.95;;;;;;;39.41;22.55;98056.16;6235303;28;20237;-71
2022/05/20 12:46:09;;;;;;;2.58;2.10;;;;;;;39.66;21.65;98061.25;6254153;28;20728;-70
2022/05/20 12:49:12;;;;;;;2.47;2.28;;;;;;;40.10;21.39;98058.00;6252929;28;20226;-71
2022/05/20 12:52:17;;;;;;;4.43;2.45;;;;;;;37.68;22.83;98046.34;6253736;28;20240;-70
2022/05/20 12:55:37;;;;;;;5.90;2.30;;;;;;;37.16;23.77;98045.06;6253864;28;20227;-71
2022/05/20 12:58:39;;;;;;;2.95;2.28;;;;;;;36.75;23.82;98049.13;6246563;28;20227;-70
2022/05/20 13:01:47;;;;;;;2.25;2.15;;;;;;;37.41;23.87;98038.56;6252756;28;20281;-70
2022/05/20 13:05:28;;;;;;;2.58;2.22;;;;;;;37.94;23.44;98033.13;6252383;28;20266;-71
2022/05/20 13:08:50;;;;;;;2.50;2.30;;;;;;;35.94;25.32;98035.66;6250065;28;20396;-71
2022/05/20 13:11:53;;;;;;;2.95;2.55;;;;;;;36.06;25.73;98025.97;6252484;28;20219;-69
2022/05/20 13:15:09;;;;;;;3.17;2.42;;;;;;;36.41;24.69;98030.56;6252667;28;20376;-69
2022/05/20 13:18:24;;;;;;;2.63;2.40;;;;;;;37.07;24.65;98021.16;6251410;28;20226;-71
2022/05/20 13:21:29;;;;;;;4.05;2.20;;;;;;;38.08;23.96;98023.09;6235131;28;20301;-71
2022/05/20 13:24:35;;;;;;;2.90;2.65;;;;;;;37.98;25.30;98010.22;6253562;28;20230;-70
2022/05/20 13:27:48;;;;;;;2.97;2.17;;;;;;;38.52;23.54;98009.09;6251909;28;20231;-70
2022/05/20 13:30:50;;;;;;;2.58;2.03;;;;;;;38.13;24.54;98002.91;6226147;28;20232;-70
2022/05/20 13:33:53;;;;;;;2.38;2.17;;;;;;;37.80;26.34;97988.09;6242989;28;20234;-70
2022/05/20 13:36:57;;;;;;;2.90;2.45;;;;;;;36.66;25.86;97993.03;6252094;28;20718;-71
2022/05/20 13:40:14;;;;;;;2.58;1.95;;;;;;;35.91;27.65;97987.56;6252207;28;20243;-71
2022/05/20 13:43:20;;;;;;;2.15;1.95;;;;;;;36.00;29.32;97990.56;6234092;28;20235;-71
2022/05/20 13:49:44;;;;;;;2.80;2.08;;;;;;;35.81;28.88;97979.34;6252118;28;20365;-70
2022/05/20 13:52:49;;;;;;;3.60;2.10;;;;;;;35.71;29.60;97980.16;6252511;28;20680;-71
2022/05/20 13:55:51;;;;;;;4.07;2.20;;;;;;;35.41;30.72;97981.03;6252065;28;20230;-71
2022/05/20 13:58:55;;;;;;;3.42;2.38;;;;;;;34.81;32.26;97980.97;6252685;28;20239;-71
2022/05/20 14:02:34;;;;;;;3.28;1.90;;;;;;;34.99;32.02;97977.69;6251835;28;20223;-70
2022/05/20 14:05:55;;;;;;;2.03;1.88;;;;;;;37.21;29.43;97964.38;6251162;28;20623;-70
2022/05/20 14:09:00;;;;;;;3.28;2.05;;;;;;;37.49;28.04;97965.50;6252611;28;20695;-71
2022/05/20 14:12:02;;;;;;;2.47;2.17;;;;;;;36.20;29.59;97972.09;6254174;28;20256;-71
2022/05/20 14:15:10;;;;;;;2.05;1.80;;;;;;;35.05;32.06;97962.88;6257336;28;20324;-71
2022/05/20 14:18:41;;;;;;;2.35;2.00;;;;;;;34.14;33.51;97962.63;6255714;28;20254;-68
2022/05/20 14:21:45;;;;;;;3.05;2.13;;;;;;;33.95;33.82;97964.97;6254641;28;20230;-71
2022/05/20 14:25:01;;;;;;;2.50;2.30;;;;;;;37.77;28.32;97961.94;6255913;28;20316;-72
2022/05/20 14:28:14;;;;;;;4.50;2.00;;;;;;;38.38;28.11;97955.72;6238029;28;20314;-73
2022/05/20 14:31:36;;;;;;;4.68;2.25;;;;;;;38.85;27.11;97949.25;6256368;28;20261;-73
2022/05/20 14:34:49;;;;;;;4.82;2.30;;;;;;;40.75;25.08;97957.34;6256275;28;20748;-72
2022/05/20 14:37:54;;;;;;;2.35;2.15;;;;;;;41.84;23.68;97940.19;6257267;28;20281;-72
2022/05/20 14:41:01;;;;;;;3.63;2.20;;;;;;;42.83;22.38;97944.22;6256419;28;20270;-73
2022/05/20 14:44:15;;;;;;;4.30;2.47;;;;;;;43.59;21.76;97938.13;6256740;28;20249;-73
2022/05/20 14:47:25;;;;;;;3.40;2.08;;;;;;;44.01;21.33;97939.13;6238466;28;20227;-72
2022/05/20 14:50:29;;;;;;;2.10;1.90;;;;;;;44.77;20.39;97930.66;6256129;28;20231;-73
2022/05/20 14:53:43;;;;;;;3.10;1.90;;;;;;;44.79;18.01;97920.00;6239139;28;20250;-72
2022/05/20 14:56:49;;;;;;;3.67;2.35;;;;;;;44.70;17.67;97917.25;6255299;28;20227;-72
2022/05/20 15:00:03;;;;;;;4.05;2.10;;;;;;;44.77;20.02;97913.94;6256304;28;20231;-72
2022/05/20 15:03:06;;;;;;;4.35;2.13;;;;;;;45.34;18.91;97902.09;6239556;28;20240;-72
2022/05/20 15:06:25;;;;;;;3.22;2.10;;;;;;;45.56;16.69;97896.13;6239301;28;20210;-72
2022/05/20 15:09:34;;;;;;;2.47;2.28;;;;;;;45.32;18.26;97899.69;6256244;28;20709;-72
2022/05/20 15:12:36;;;;;;;2.78;2.15;;;;;;;45.30;18.31;97890.03;6255526;28;20235;-72
2022/05/20 15:15:43;;;;;;;2.40;2.20;;;;;;;44.99;19.37;97885.72;6255959;28;20310;-72
2022/05/20 15:18:45;;;;;;;2.40;1.60;;;;;;;44.90;19.56;97889.75;6254755;28;20231;-71
2022/05/20 15:21:50;;;;;;;3.00;1.90;;;;;;;44.15;18.14;97878.47;6255007;28;20235;-71
2022/05/20 15:24:52;;;;;;;5.53;2.25;;;;;;;43.86;19.14;97875.69;6254549;28;20321;-71
2022/05/20 15:27:56;;;;;;;3.63;2.00;;;;;;;44.04;19.04;97874.44;6254237;28;20423;-72
2022/05/20 15:37:43;;;;;;;2.58;1.83;;;;;;;44.75;19.77;97864.13;6236837;28;20655;-72